sensor_id;sensor_type;location;lat;lon;timestamp;pressure;altitude;pressure_sealevel;temperature;humidity
37634;BME280;32048;49.902;22.508;2023-02-24T00:02:03;98230.03;;;5.25;77.59
37634;BME280;32048;49.902;22.508;2023-02-24T00:04:34;98231.81;;;5.25;78.07
37634;BME280;32048;49.902;22.508;2023-02-24T00:07:02;98224.78;;;5.25;78.56
37634;BME280;32048;49.902;22.508;2023-02-24T00:09:29;98217.56;;;5.32;78.46
37634;BME280;32048;49.902;22.508;2023-02-24T00:12:09;98207.78;;;5.35;78.45
37634;BME280;32048;49.902;22.508;2023-02-24T00:14:38;98212.78;;;5.41;78.24
37634;BME280;32048;49.902;22.508;2023-02-24T00:17:07;98210.03;;;5.45;78.82
37634;BME280;32048;49.902;22.508;2023-02-24T00:19:36;98202.88;;;5.50;77.89
37634;BME280;32048;49.902;22.508;2023-02-24T00:22:05;98207.94;;;5.54;77.66
37634;BME280;32048;49.902;22.508;2023-02-24T00:24:33;98199.22;;;5.54;78.04
37634;BME280;32048;49.902;22.508;2023-02-24T00:27:03;98205.16;;;5.57;77.61
37634;BME280;32048;49.902;22.508;2023-02-24T00:29:34;98201.56;;;5.60;77.75
37634;BME280;32048;49.902;22.508;2023-02-24T00:32:03;98201.56;;;5.60;77.66
37634;BME280;32048;49.902;22.508;2023-02-24T00:34:35;98192.81;;;5.61;77.67
37634;BME280;32048;49.902;22.508;2023-02-24T00:37:03;98191.94;;;5.60;77.58
37634;BME280;32048;49.902;22.508;2023-02-24T00:39:33;98193.00;;;5.56;78.07
37634;BME280;32048;49.902;22.508;2023-02-24T00:42:04;98188.81;;;5.52;78.71
37634;BME280;32048;49.902;22.508;2023-02-24T00:44:43;98180.19;;;5.49;78.55
37634;BME280;32048;49.902;22.508;2023-02-24T00:47:13;98184.59;;;5.48;78.65
37634;BME280;32048;49.902;22.508;2023-02-24T00:49:42;98169.06;;;5.44;79.26
37634;BME280;32048;49.902;22.508;2023-02-24T00:52:12;98174.38;;;5.42;79.19
37634;BME280;32048;49.902;22.508;2023-02-24T00:54:40;98171.09;;;5.37;79.75
37634;BME280;32048;49.902;22.508;2023-02-24T00:57:09;98166.84;;;5.34;79.96
37634;BME280;32048;49.902;22.508;2023-02-24T00:59:37;98171.31;;;5.31;80.35
37634;BME280;32048;49.902;22.508;2023-02-24T01:02:04;98165.19;;;5.32;80.17
37634;BME280;32048;49.902;22.508;2023-02-24T01:04:33;98171.22;;;5.34;80.29
37634;BME280;32048;49.902;22.508;2023-02-24T01:07:01;98167.81;;;5.32;80.62
37634;BME280;32048;49.902;22.508;2023-02-24T01:09:30;98161.78;;;5.30;80.93
37634;BME280;32048;49.902;22.508;2023-02-24T01:11:58;98164.41;;;5.30;80.88
37634;BME280;32048;49.902;22.508;2023-02-24T01:14:45;98167.81;;;5.32;80.89
37634;BME280;32048;49.902;22.508;2023-02-24T01:17:15;98158.38;;;5.28;81.13
37634;BME280;32048;49.902;22.508;2023-02-24T01:19:44;98153.13;;;5.28;81.31
37634;BME280;32048;49.902;22.508;2023-02-24T01:22:14;98155.69;;;5.29;81.38
37634;BME280;32048;49.902;22.508;2023-02-24T01:24:43;98156.72;;;5.25;82.15
37634;BME280;32048;49.902;22.508;2023-02-24T01:27:12;98144.50;;;5.26;81.90
37634;BME280;32048;49.902;22.508;2023-02-24T01:29:39;98151.50;;;5.25;82.12
37634;BME280;32048;49.902;22.508;2023-02-24T01:32:18;98147.94;;;5.26;81.80
37634;BME280;32048;49.902;22.508;2023-02-24T01:34:46;98140.03;;;5.28;81.75
37634;BME280;32048;49.902;22.508;2023-02-24T01:37:14;98138.28;;;5.28;82.08
37634;BME280;32048;49.902;22.508;2023-02-24T01:39:43;98136.59;;;5.27;82.00
37634;BME280;32048;49.902;22.508;2023-02-24T01:42:13;98135.72;;;5.27;82.45
37634;BME280;32048;49.902;22.508;2023-02-24T01:47:10;98138.41;;;5.25;82.98
37634;BME280;32048;49.902;22.508;2023-02-24T01:49:38;98134.06;;;5.24;83.32
37634;BME280;32048;49.902;22.508;2023-02-24T01:52:07;98130.66;;;5.22;83.23
37634;BME280;32048;49.902;22.508;2023-02-24T01:54:45;98134.06;;;5.24;83.14
37634;BME280;32048;49.902;22.508;2023-02-24T01:57:16;98130.47;;;5.27;83.19
37634;BME280;32048;49.902;22.508;2023-02-24T01:59:47;98130.19;;;5.34;82.54
37634;BME280;32048;49.902;22.508;2023-02-24T02:02:16;98127.41;;;5.37;82.27
37634;BME280;32048;49.902;22.508;2023-02-24T02:04:54;98119.38;;;5.42;81.95
37634;BME280;32048;49.902;22.508;2023-02-24T02:07:27;98122.69;;;5.47;81.58
37634;BME280;32048;49.902;22.508;2023-02-24T02:09:57;98116.50;;;5.48;82.04
37634;BME280;32048;49.902;22.508;2023-02-24T02:12:31;98113.94;;;5.47;82.21
37634;BME280;32048;49.902;22.508;2023-02-24T02:15:04;98113.88;;;5.48;82.42
37634;BME280;32048;49.902;22.508;2023-02-24T02:18:01;98113.84;;;5.50;82.48
37634;BME280;32048;49.902;22.508;2023-02-24T02:35:04;98091.72;;;5.57;82.82
37634;BME280;32048;49.902;22.508;2023-02-24T02:38:13;98094.19;;;5.60;82.67
37634;BME280;32048;49.902;22.508;2023-02-24T02:40:43;98074.94;;;5.61;82.52
37634;BME280;32048;49.902;22.508;2023-02-24T02:46:02;98078.28;;;5.65;82.73
37634;BME280;32048;49.902;22.508;2023-02-24T02:51:09;98087.50;;;5.73;81.82
37634;BME280;32048;49.902;22.508;2023-02-24T02:56:24;98085.63;;;5.77;82.02
37634;BME280;32048;49.902;22.508;2023-02-24T02:58:57;98076.13;;;5.74;82.01
37634;BME280;32048;49.902;22.508;2023-02-24T03:01:32;98075.19;;;5.75;81.93
37634;BME280;32048;49.902;22.508;2023-02-24T03:04:05;98068.19;;;5.76;82.43
37634;BME280;32048;49.902;22.508;2023-02-24T03:06:36;98078.41;;;5.82;81.90
37634;BME280;32048;49.902;22.508;2023-02-24T03:09:21;98066.09;;;5.84;82.10
37634;BME280;32048;49.902;22.508;2023-02-24T03:11:54;98070.13;;;5.91;81.51
37634;BME280;32048;49.902;22.508;2023-02-24T03:14:28;98055.19;;;5.93;81.70
37634;BME280;32048;49.902;22.508;2023-02-24T03:16:57;98064.81;;;5.94;81.65
37634;BME280;32048;49.902;22.508;2023-02-24T03:19:36;98056.19;;;5.91;82.24
37634;BME280;32048;49.902;22.508;2023-02-24T03:22:20;98059.66;;;5.91;82.51
37634;BME280;32048;49.902;22.508;2023-02-24T03:24:50;98059.56;;;5.94;81.90
37634;BME280;32048;49.902;22.508;2023-02-24T03:27:27;98054.22;;;5.96;82.16
37634;BME280;32048;49.902;22.508;2023-02-24T03:29:59;98067.28;;;5.97;82.12
37634;BME280;32048;49.902;22.508;2023-02-24T03:32:37;98061.78;;;6.03;81.76
37634;BME280;32048;49.902;22.508;2023-02-24T03:35:16;98050.34;;;6.04;81.98
37634;BME280;32048;49.902;22.508;2023-02-24T03:37:46;98044.06;;;6.09;81.33
37634;BME280;32048;49.902;22.508;2023-02-24T03:40:16;98045.84;;;6.08;81.29
37634;BME280;32048;49.902;22.508;2023-02-24T03:42:46;98044.00;;;6.10;81.38
37634;BME280;32048;49.902;22.508;2023-02-24T03:45:15;98044.06;;;6.09;81.57
37634;BME280;32048;49.902;22.508;2023-02-24T03:47:43;98034.41;;;6.09;81.56
37634;BME280;32048;49.902;22.508;2023-02-24T03:50:18;98030.97;;;6.09;81.98
37634;BME280;32048;49.902;22.508;2023-02-24T04:09:30;98010.56;;;6.15;82.53
37634;BME280;32048;49.902;22.508;2023-02-24T04:12:06;97998.34;;;6.14;82.76
37634;BME280;32048;49.902;22.508;2023-02-24T04:15:09;98005.31;;;6.15;82.99
37634;BME280;32048;49.902;22.508;2023-02-24T04:17:50;97992.06;;;6.18;82.85
37634;BME280;32048;49.902;22.508;2023-02-24T04:20:21;97987.75;;;6.17;83.89
37634;BME280;32048;49.902;22.508;2023-02-24T04:22:53;97986.13;;;6.15;85.12
37634;BME280;32048;49.902;22.508;2023-02-24T04:25:24;97982.09;;;6.08;86.71
37634;BME280;32048;49.902;22.508;2023-02-24T04:27:54;97983.28;;;6.00;88.74
37634;BME280;32048;49.902;22.508;2023-02-24T04:30:24;97972.28;;;5.92;89.31
37634;BME280;32048;49.902;22.508;2023-02-24T04:32:53;97989.84;;;5.90;90.98
37634;BME280;32048;49.902;22.508;2023-02-24T04:35:24;97978.69;;;5.85;91.58
37634;BME280;32048;49.902;22.508;2023-02-24T04:37:52;97984.88;;;5.84;91.89
37634;BME280;32048;49.902;22.508;2023-02-24T04:40:22;97979.69;;;5.82;92.41
37634;BME280;32048;49.902;22.508;2023-02-24T04:42:51;97966.69;;;5.81;92.41
37634;BME280;32048;49.902;22.508;2023-02-24T04:45:28;97973.66;;;5.80;91.65
37634;BME280;32048;49.902;22.508;2023-02-24T04:47:57;97957.66;;;5.87;90.52
37634;BME280;32048;49.902;22.508;2023-02-24T04:50:32;97957.41;;;5.93;90.33
37634;BME280;32048;49.902;22.508;2023-02-24T04:53:11;97951.97;;;5.97;89.14
37634;BME280;32048;49.902;22.508;2023-02-24T04:55:41;97954.31;;;6.03;88.48
37634;BME280;32048;49.902;22.508;2023-02-24T04:58:13;97952.31;;;6.09;87.49
37634;BME280;32048;49.902;22.508;2023-02-24T05:00:47;97948.50;;;6.16;86.75
37634;BME280;32048;49.902;22.508;2023-02-24T05:03:15;97949.91;;;6.23;85.67
37634;BME280;32048;49.902;22.508;2023-02-24T05:05:51;97943.69;;;6.26;85.70
37634;BME280;32048;49.902;22.508;2023-02-24T05:08:20;97945.31;;;6.28;85.59
37634;BME280;32048;49.902;22.508;2023-02-24T05:10:48;97949.53;;;6.31;84.61
37634;BME280;32048;49.902;22.508;2023-02-24T05:13:18;97949.25;;;6.37;84.59
37634;BME280;32048;49.902;22.508;2023-02-24T05:15:46;97940.41;;;6.39;83.98
37634;BME280;32048;49.902;22.508;2023-02-24T05:18:15;97928.97;;;6.40;83.66
37634;BME280;32048;49.902;22.508;2023-02-24T05:20:48;97938.56;;;6.41;83.86
37634;BME280;32048;49.902;22.508;2023-02-24T05:23:36;97931.31;;;6.47;83.29
37634;BME280;32048;49.902;22.508;2023-02-24T05:26:16;97923.50;;;6.45;84.18
37634;BME280;32048;49.902;22.508;2023-02-24T05:28:44;97923.72;;;6.40;85.91
37634;BME280;32048;49.902;22.508;2023-02-24T05:31:18;97929.19;;;6.36;86.68
37634;BME280;32048;49.902;22.508;2023-02-24T05:33:48;97921.63;;;6.30;88.40
37634;BME280;32048;49.902;22.508;2023-02-24T05:36:21;97931.63;;;6.21;89.49
37634;BME280;32048;49.902;22.508;2023-02-24T05:38:53;97923.91;;;6.18;90.47
37634;BME280;32048;49.902;22.508;2023-02-24T05:41:27;97922.22;;;6.17;91.68
37634;BME280;32048;49.902;22.508;2023-02-24T05:44:05;97926.91;;;6.11;93.03
37634;BME280;32048;49.902;22.508;2023-02-24T05:46:39;97937.53;;;6.08;93.74
37634;BME280;32048;49.902;22.508;2023-02-24T05:49:19;97928.91;;;6.06;93.95
37634;BME280;32048;49.902;22.508;2023-02-24T05:51:51;97927.97;;;6.07;94.10
37634;BME280;32048;49.902;22.508;2023-02-24T05:54:29;97928.91;;;6.06;94.20
37634;BME280;32048;49.902;22.508;2023-02-24T05:56:59;97913.22;;;6.04;94.57
37634;BME280;32048;49.902;22.508;2023-02-24T05:59:26;97926.34;;;6.04;94.47
37634;BME280;32048;49.902;22.508;2023-02-24T06:02:05;97921.16;;;6.02;94.53
37634;BME280;32048;49.902;22.508;2023-02-24T06:04:36;97916.84;;;6.01;94.90
37634;BME280;32048;49.902;22.508;2023-02-24T06:07:23;97915.00;;;6.03;94.44
37634;BME280;32048;49.902;22.508;2023-02-24T06:09:51;97913.22;;;6.04;94.33
37634;BME280;32048;49.902;22.508;2023-02-24T06:12:31;97908.84;;;6.04;94.72
37634;BME280;32048;49.902;22.508;2023-02-24T06:14:59;97911.16;;;6.11;94.24
37634;BME280;32048;49.902;22.508;2023-02-24T06:17:28;97909.31;;;6.13;94.02
37634;BME280;32048;49.902;22.508;2023-02-24T06:19:55;97889.03;;;6.16;93.02
37634;BME280;32048;49.902;22.508;2023-02-24T06:22:24;97903.81;;;6.19;93.16
37634;BME280;32048;49.902;22.508;2023-02-24T06:24:53;97897.47;;;6.23;92.17
37634;BME280;32048;49.902;22.508;2023-02-24T06:27:21;97899.94;;;6.26;92.17
37634;BME280;32048;49.902;22.508;2023-02-24T06:29:52;97892.72;;;6.31;91.91
37634;BME280;32048;49.902;22.508;2023-02-24T06:32:22;97899.56;;;6.34;91.42
37634;BME280;32048;49.902;22.508;2023-02-24T06:34:50;97900.41;;;6.34;91.66
37634;BME280;32048;49.902;22.508;2023-02-24T06:37:17;97902.13;;;6.35;91.57
37634;BME280;32048;49.902;22.508;2023-02-24T06:39:45;97895.94;;;6.36;91.86
37634;BME280;32048;49.902;22.508;2023-02-24T06:42:12;97898.50;;;6.38;91.62
37634;BME280;32048;49.902;22.508;2023-02-24T06:44:40;97890.78;;;6.35;92.46
37634;BME280;32048;49.902;22.508;2023-02-24T06:47:10;97896.09;;;6.33;92.92
37634;BME280;32048;49.902;22.508;2023-02-24T06:49:39;97900.34;;;6.36;92.80
37634;BME280;32048;49.902;22.508;2023-02-24T06:52:07;97887.06;;;6.39;92.92
37634;BME280;32048;49.902;22.508;2023-02-24T06:54:34;97889.00;;;6.35;94.24
37634;BME280;32048;49.902;22.508;2023-02-24T06:57:02;97885.91;;;6.27;96.99
37634;BME280;32048;49.902;22.508;2023-02-24T06:59:29;97898.84;;;6.13;99.59
37634;BME280;32048;49.902;22.508;2023-02-24T07:01:59;97903.81;;;6.00;100.00
37634;BME280;32048;49.902;22.508;2023-02-24T07:04:28;97900.75;;;5.90;100.00
37634;BME280;32048;49.902;22.508;2023-02-24T07:06:57;97892.94;;;5.89;100.00
37634;BME280;32048;49.902;22.508;2023-02-24T07:09:30;97889.03;;;5.78;100.00
37634;BME280;32048;49.902;22.508;2023-02-24T07:11:57;97884.97;;;5.73;100.00
37634;BME280;32048;49.902;22.508;2023-02-24T07:14:27;97852.75;;;5.71;100.00
37634;BME280;32048;49.902;22.508;2023-02-24T07:16:58;97880.00;;;5.67;100.00
37634;BME280;32048;49.902;22.508;2023-02-24T07:19:28;97882.81;;;5.62;100.00
37634;BME280;32048;49.902;22.508;2023-02-24T07:21:58;97870.16;;;5.53;100.00
37634;BME280;32048;49.902;22.508;2023-02-24T07:24:32;97870.53;;;5.45;100.00
37634;BME280;32048;49.902;22.508;2023-02-24T07:27:06;97863.22;;;5.33;100.00
37634;BME280;32048;49.902;22.508;2023-02-24T07:29:34;97860.94;;;5.25;100.00
37634;BME280;32048;49.902;22.508;2023-02-24T07:32:04;97852.31;;;5.23;100.00
37634;BME280;32048;49.902;22.508;2023-02-24T07:34:32;97867.44;;;5.16;100.00
37634;BME280;32048;49.902;22.508;2023-02-24T07:37:00;97861.63;;;5.10;100.00
37634;BME280;32048;49.902;22.508;2023-02-24T07:39:35;97864.31;;;5.08;100.00
37634;BME280;32048;49.902;22.508;2023-02-24T07:42:04;97867.06;;;5.05;100.00
37634;BME280;32048;49.902;22.508;2023-02-24T07:44:31;97858.50;;;5.02;100.00
37634;BME280;32048;49.902;22.508;2023-02-24T07:46:59;97846.19;;;5.04;100.00
37634;BME280;32048;49.902;22.508;2023-02-24T07:49:26;97854.81;;;5.06;100.00
37634;BME280;32048;49.902;22.508;2023-02-24T07:51:56;97846.97;;;5.06;100.00
37634;BME280;32048;49.902;22.508;2023-02-24T07:54:25;97841.69;;;5.07;100.00
37634;BME280;32048;49.902;22.508;2023-02-24T07:56:57;97844.41;;;5.04;100.00
37634;BME280;32048;49.902;22.508;2023-02-24T07:59:28;97815.00;;;4.99;100.00
37634;BME280;32048;49.902;22.508;2023-02-24T08:01:56;97831.44;;;5.03;100.00
37634;BME280;32048;49.902;22.508;2023-02-24T08:04:26;97814.38;;;5.13;100.00
37634;BME280;32048;49.902;22.508;2023-02-24T08:06:55;97823.47;;;5.25;100.00
37634;BME280;32048;49.902;22.508;2023-02-24T08:09:28;97824.19;;;5.47;100.00
37634;BME280;32048;49.902;22.508;2023-02-24T08:12:15;97810.47;;;5.97;100.00
37634;BME280;32048;49.902;22.508;2023-02-24T08:14:50;97802.25;;;6.40;100.00
37634;BME280;32048;49.902;22.508;2023-02-24T08:17:20;97805.56;;;6.61;100.00
37634;BME280;32048;49.902;22.508;2023-02-24T08:19:49;97800.31;;;6.61;100.00
37634;BME280;32048;49.902;22.508;2023-02-24T08:22:27;97781.69;;;6.65;100.00
37634;BME280;32048;49.902;22.508;2023-02-24T08:25:02;97798.75;;;6.57;100.00
37634;BME280;32048;49.902;22.508;2023-02-24T08:27:36;97795.22;;;6.58;100.00
37634;BME280;32048;49.902;22.508;2023-02-24T08:30:06;97800.25;;;6.45;100.00
37634;BME280;32048;49.902;22.508;2023-02-24T08:32:39;97802.41;;;6.19;100.00
37634;BME280;32048;49.902;22.508;2023-02-24T08:35:16;97799.81;;;6.00;100.00
37634;BME280;32048;49.902;22.508;2023-02-24T08:37:49;97797.78;;;5.88;100.00
37634;BME280;32048;49.902;22.508;2023-02-24T08:40:25;97795.16;;;5.88;100.00
37634;BME280;32048;49.902;22.508;2023-02-24T08:43:10;97778.25;;;5.95;100.00
37634;BME280;32048;49.902;22.508;2023-02-24T08:45:46;97790.22;;;6.18;100.00
37634;BME280;32048;49.902;22.508;2023-02-24T08:48:26;97782.34;;;6.53;100.00
37634;BME280;32048;49.902;22.508;2023-02-24T08:53:44;97790.00;;;7.40;100.00
37634;BME280;32048;49.902;22.508;2023-02-24T08:56:14;97782.13;;;7.72;100.00
37634;BME280;32048;49.902;22.508;2023-02-24T08:58:56;97783.34;;;7.97;99.87
37634;BME280;32048;49.902;22.508;2023-02-24T09:01:28;97772.75;;;7.82;97.53
37634;BME280;32048;49.902;22.508;2023-02-24T09:04:06;97775.59;;;7.47;100.00
37634;BME280;32048;49.902;22.508;2023-02-24T09:09:06;97769.25;;;7.20;100.00
37634;BME280;32048;49.902;22.508;2023-02-24T09:11:54;97768.44;;;7.02;100.00
37634;BME280;32048;49.902;22.508;2023-02-24T09:14:28;97755.13;;;6.89;100.00
37634;BME280;32048;49.902;22.508;2023-02-24T09:16:58;97754.66;;;6.81;100.00
37634;BME280;32048;49.902;22.508;2023-02-24T09:19:40;97748.91;;;6.74;100.00
37634;BME280;32048;49.902;22.508;2023-02-24T09:22:21;97764.09;;;6.68;100.00
37634;BME280;32048;49.902;22.508;2023-02-24T09:25:12;97771.44;;;6.61;100.00
37634;BME280;32048;49.902;22.508;2023-02-24T09:27:53;97761.19;;;6.56;100.00
37634;BME280;32048;49.902;22.508;2023-02-24T09:30:27;97747.59;;;6.65;100.00
37634;BME280;32048;49.902;22.508;2023-02-24T09:33:14;97746.97;;;6.78;100.00
37634;BME280;32048;49.902;22.508;2023-02-24T09:38:48;97761.69;;;7.29;100.00
37634;BME280;32048;49.902;22.508;2023-02-24T09:44:39;97750.25;;;7.46;99.30
37634;BME280;32048;49.902;22.508;2023-02-24T09:50:31;97745.00;;;7.78;97.08
37634;BME280;32048;49.902;22.508;2023-02-24T09:53:31;97725.94;;;7.89;96.56
37634;BME280;32048;49.902;22.508;2023-02-24T09:56:19;97730.84;;;7.95;95.16
37634;BME280;32048;49.902;22.508;2023-02-24T10:02:02;97714.94;;;7.98;97.79
37634;BME280;32048;49.902;22.508;2023-02-24T10:07:39;97714.78;;;8.60;92.99
37634;BME280;32048;49.902;22.508;2023-02-24T10:10:17;97706.63;;;8.79;89.07
37634;BME280;32048;49.902;22.508;2023-02-24T10:12:46;97696.34;;;8.89;90.04
37634;BME280;32048;49.902;22.508;2023-02-24T10:15:28;97682.34;;;9.30;89.93
37634;BME280;32048;49.902;22.508;2023-02-24T10:18:31;97689.44;;;9.96;83.90
37634;BME280;32048;49.902;22.508;2023-02-24T10:23:50;97671.34;;;10.56;79.78
37634;BME280;32048;49.902;22.508;2023-02-24T10:26:31;97662.09;;;10.37;80.07
37634;BME280;32048;49.902;22.508;2023-02-24T10:32:52;97641.41;;;10.31;81.56
37634;BME280;32048;49.902;22.508;2023-02-24T10:35:27;97626.72;;;10.40;80.02
37634;BME280;32048;49.902;22.508;2023-02-24T10:38:00;97639.25;;;10.11;83.68
37634;BME280;32048;49.902;22.508;2023-02-24T10:40:32;97633.66;;;10.15;82.07
37634;BME280;32048;49.902;22.508;2023-02-24T10:43:17;97628.41;;;10.41;79.87
37634;BME280;32048;49.902;22.508;2023-02-24T10:45:46;97616.66;;;10.58;80.74
37634;BME280;32048;49.902;22.508;2023-02-24T10:48:23;97601.38;;;10.50;78.78
37634;BME280;32048;49.902;22.508;2023-02-24T10:51:14;97609.91;;;10.03;82.69
37634;BME280;32048;49.902;22.508;2023-02-24T10:53:48;97607.81;;;10.08;83.48
37634;BME280;32048;49.902;22.508;2023-02-24T10:56:40;97606.56;;;10.13;82.00
37634;BME280;32048;49.902;22.508;2023-02-24T10:59:13;97588.81;;;10.15;82.23
37634;BME280;32048;49.902;22.508;2023-02-24T11:02:13;97591.88;;;10.48;80.72
37634;BME280;32048;49.902;22.508;2023-02-24T11:04:59;97582.75;;;10.65;80.43
37634;BME280;32048;49.902;22.508;2023-02-24T11:07:42;97589.31;;;10.96;81.30
37634;BME280;32048;49.902;22.508;2023-02-24T11:10:22;97585.44;;;11.26;77.92
37634;BME280;32048;49.902;22.508;2023-02-24T11:12:59;97588.66;;;11.53;76.98
37634;BME280;32048;49.902;22.508;2023-02-24T11:18:31;97600.63;;;11.81;75.74
37634;BME280;32048;49.902;22.508;2023-02-24T11:23:33;97552.66;;;11.04;76.62
37634;BME280;32048;49.902;22.508;2023-02-24T11:26:23;97564.50;;;10.61;80.58
37634;BME280;32048;49.902;22.508;2023-02-24T11:39:59;97535.16;;;9.38;84.54
37634;BME280;32048;49.902;22.508;2023-02-24T11:42:45;97534.38;;;9.10;87.59
37634;BME280;32048;49.902;22.508;2023-02-24T11:45:22;97546.75;;;8.95;88.50
37634;BME280;32048;49.902;22.508;2023-02-24T11:47:58;97546.53;;;8.71;91.66
37634;BME280;32048;49.902;22.508;2023-02-24T11:50:40;97526.72;;;8.51;91.85
37634;BME280;32048;49.902;22.508;2023-02-24T12:04:27;97510.38;;;7.32;100.00
37634;BME280;32048;49.902;22.508;2023-02-24T12:07:07;97508.34;;;7.21;100.00
37634;BME280;32048;49.902;22.508;2023-02-24T12:10:06;97492.81;;;7.32;100.00
37634;BME280;32048;49.902;22.508;2023-02-24T12:13:04;97498.00;;;7.48;100.00
37634;BME280;32048;49.902;22.508;2023-02-24T12:15:39;97494.25;;;7.66;100.00
37634;BME280;32048;49.902;22.508;2023-02-24T12:18:35;97495.78;;;7.56;100.00
37634;BME280;32048;49.902;22.508;2023-02-24T12:21:19;97496.97;;;7.50;100.00
37634;BME280;32048;49.902;22.508;2023-02-24T12:23:50;97485.34;;;7.55;100.00
37634;BME280;32048;49.902;22.508;2023-02-24T12:40:28;97476.53;;;7.56;100.00
37634;BME280;32048;49.902;22.508;2023-02-24T12:46:30;97467.31;;;7.48;100.00
37634;BME280;32048;49.902;22.508;2023-02-24T12:59:14;97476.16;;;7.47;100.00
37634;BME280;32048;49.902;22.508;2023-02-24T13:01:50;97450.91;;;7.45;100.00
37634;BME280;32048;49.902;22.508;2023-02-24T13:04:53;97450.25;;;7.41;100.00
37634;BME280;32048;49.902;22.508;2023-02-24T13:10:20;97437.75;;;7.31;100.00
37634;BME280;32048;49.902;22.508;2023-02-24T13:12:59;97436.19;;;7.42;100.00
37634;BME280;32048;49.902;22.508;2023-02-24T13:15:30;97451.22;;;7.83;100.00
37634;BME280;32048;49.902;22.508;2023-02-24T13:17:57;97437.50;;;7.93;99.88
37634;BME280;32048;49.902;22.508;2023-02-24T13:20:26;97437.28;;;7.96;99.01
37634;BME280;32048;49.902;22.508;2023-02-24T13:22:54;97440.94;;;7.93;98.86
37634;BME280;32048;49.902;22.508;2023-02-24T13:25:35;97452.88;;;7.84;98.80
37634;BME280;32048;49.902;22.508;2023-02-24T13:28:05;97448.94;;;7.77;98.18
37634;BME280;32048;49.902;22.508;2023-02-24T13:31:00;97446.22;;;7.64;99.64
37634;BME280;32048;49.902;22.508;2023-02-24T13:33:34;97445.88;;;7.56;98.96
37634;BME280;32048;49.902;22.508;2023-02-24T13:36:20;97434.56;;;7.40;100.00
37634;BME280;32048;49.902;22.508;2023-02-24T13:43:56;97436.63;;;7.20;100.00
37634;BME280;32048;49.902;22.508;2023-02-24T13:46:27;97423.78;;;7.16;100.00
37634;BME280;32048;49.902;22.508;2023-02-24T14:02:42;97401.38;;;7.24;100.00
37634;BME280;32048;49.902;22.508;2023-02-24T14:05:17;97405.00;;;7.22;100.00
37634;BME280;32048;49.902;22.508;2023-02-24T14:07:48;97402.66;;;7.17;100.00
37634;BME280;32048;49.902;22.508;2023-02-24T14:10:18;97400.25;;;7.14;100.00
37634;BME280;32048;49.902;22.508;2023-02-24T14:12:48;97405.50;;;7.14;100.00
37634;BME280;32048;49.902;22.508;2023-02-24T14:15:20;97401.84;;;7.17;100.00
37634;BME280;32048;49.902;22.508;2023-02-24T14:17:59;97401.75;;;7.18;100.00
37634;BME280;32048;49.902;22.508;2023-02-24T14:20:31;97405.22;;;7.19;100.00
37634;BME280;32048;49.902;22.508;2023-02-24T14:22:59;97396.97;;;7.25;100.00
37634;BME280;32048;49.902;22.508;2023-02-24T14:25:34;97397.25;;;7.20;100.00
37634;BME280;32048;49.902;22.508;2023-02-24T14:28:04;97385.91;;;7.20;100.00
37634;BME280;32048;49.902;22.508;2023-02-24T14:30:37;97397.53;;;7.16;100.00
37634;BME280;32048;49.902;22.508;2023-02-24T14:33:06;97380.19;;;7.13;100.00
37634;BME280;32048;49.902;22.508;2023-02-24T14:35:45;97395.53;;;7.05;100.00
37634;BME280;32048;49.902;22.508;2023-02-24T14:38:33;97389.06;;;6.96;100.00
37634;BME280;32048;49.902;22.508;2023-02-24T14:41:03;97391.00;;;6.93;100.00
37634;BME280;32048;49.902;22.508;2023-02-24T14:43:31;97401.78;;;6.88;100.00
37634;BME280;32048;49.902;22.508;2023-02-24T14:46:03;97402.03;;;6.83;100.00
37634;BME280;32048;49.902;22.508;2023-02-24T14:48:31;97399.53;;;6.82;100.00
37634;BME280;32048;49.902;22.508;2023-02-24T14:51:05;97393.53;;;6.80;100.00
37634;BME280;32048;49.902;22.508;2023-02-24T14:53:46;97382.19;;;6.79;100.00
37634;BME280;32048;49.902;22.508;2023-02-24T14:56:14;97373.66;;;6.76;100.00
37634;BME280;32048;49.902;22.508;2023-02-24T14:58:49;97372.88;;;6.74;100.00
37634;BME280;32048;49.902;22.508;2023-02-24T15:01:26;97376.53;;;6.71;100.00
37634;BME280;32048;49.902;22.508;2023-02-24T15:04:52;97372.41;;;6.67;100.00
37634;BME280;32048;49.902;22.508;2023-02-24T15:07:27;97367.34;;;6.64;100.00
37634;BME280;32048;49.902;22.508;2023-02-24T15:09:56;97358.72;;;6.62;100.00
37634;BME280;32048;49.902;22.508;2023-02-24T15:12:33;97345.59;;;6.62;100.00
37634;BME280;32048;49.902;22.508;2023-02-24T15:17:40;97346.22;;;6.51;100.00
37634;BME280;32048;49.902;22.508;2023-02-24T15:20:33;97359.34;;;6.51;100.00
37634;BME280;32048;49.902;22.508;2023-02-24T15:23:01;97341.34;;;6.45;100.00
37634;BME280;32048;49.902;22.508;2023-02-24T15:25:30;97333.72;;;6.40;100.00
37634;BME280;32048;49.902;22.508;2023-02-24T15:28:26;97325.22;;;6.37;100.00
37634;BME280;32048;49.902;22.508;2023-02-24T15:31:16;97325.94;;;6.39;100.00
37634;BME280;32048;49.902;22.508;2023-02-24T15:33:52;97314.25;;;6.30;100.00
37634;BME280;32048;49.902;22.508;2023-02-24T15:36:23;97298.69;;;6.27;100.00
37634;BME280;32048;49.902;22.508;2023-02-24T15:38:53;97303.16;;;6.25;100.00
37634;BME280;32048;49.902;22.508;2023-02-24T15:41:21;97286.78;;;6.21;100.00
37634;BME280;32048;49.902;22.508;2023-02-24T15:43:50;97289.47;;;6.20;100.00
37634;BME280;32048;49.902;22.508;2023-02-24T15:46:33;97290.44;;;6.19;100.00
37634;BME280;32048;49.902;22.508;2023-02-24T15:49:00;97295.91;;;6.14;100.00
37634;BME280;32048;49.902;22.508;2023-02-24T15:51:46;97280.56;;;6.08;100.00
37634;BME280;32048;49.902;22.508;2023-02-24T15:54:35;97282.56;;;6.03;100.00
37634;BME280;32048;49.902;22.508;2023-02-24T15:57:03;97278.22;;;6.03;100.00
37634;BME280;32048;49.902;22.508;2023-02-24T15:59:31;97288.56;;;6.05;100.00
37634;BME280;32048;49.902;22.508;2023-02-24T16:01:58;97282.75;;;6.00;100.00